Terminal Aerodrome Forecast
Issued by NWS Sterling, VA

Current Version | Previous Version | Graphics & Text | Print | Product List | Glossary On
Versions: 1 2 3 4 5 6 7 8 9 10 11 12 13 14 15 16 17
000
FTUS41 KLWX 200520
TAFMRB
TAF
KMRB 200520Z 2006/2106 03005KT P6SM SKC
     FM200900 03007KT P6SM OVC040
     FM201500 06006KT P6SM OVC030
     FM202000 10007KT P6SM BKN020
     FM210200 12006KT P6SM BKN035=

USA.gov is the U.S. government's official web portal to all federal, state and local government web resources and services.